sensor_id;sensor_type;location;lat;lon;timestamp;P1;durP1;ratioP1;P2;durP2;ratioP2
6693;SDS011;3384;42.628;23.380;2023-07-31T00:01:55;5.83;;;5.63;;
6693;SDS011;3384;42.628;23.380;2023-07-31T00:04:22;6.33;;;6.13;;
6693;SDS011;3384;42.628;23.380;2023-07-31T00:06:48;5.50;;;5.40;;
6693;SDS011;3384;42.628;23.380;2023-07-31T00:09:15;4.90;;;4.80;;
6693;SDS011;3384;42.628;23.380;2023-07-31T00:11:42;5.20;;;5.03;;
6693;SDS011;3384;42.628;23.380;2023-07-31T00:14:09;5.50;;;5.30;;
6693;SDS011;3384;42.628;23.380;2023-07-31T00:16:35;5.27;;;5.17;;
6693;SDS011;3384;42.628;23.380;2023-07-31T00:19:04;5.27;;;5.17;;
6693;SDS011;3384;42.628;23.380;2023-07-31T00:21:30;5.97;;;5.77;;
6693;SDS011;3384;42.628;23.380;2023-07-31T00:23:57;5.57;;;5.20;;
6693;SDS011;3384;42.628;23.380;2023-07-31T00:26:24;4.83;;;4.73;;
6693;SDS011;3384;42.628;23.380;2023-07-31T00:28:51;5.00;;;4.80;;
6693;SDS011;3384;42.628;23.380;2023-07-31T00:31:17;5.60;;;5.50;;
6693;SDS011;3384;42.628;23.380;2023-07-31T00:33:44;5.97;;;5.73;;
6693;SDS011;3384;42.628;23.380;2023-07-31T00:36:12;12.93;;;6.13;;
6693;SDS011;3384;42.628;23.380;2023-07-31T00:38:39;5.40;;;5.20;;
6693;SDS011;3384;42.628;23.380;2023-07-31T00:41:06;5.00;;;4.80;;
6693;SDS011;3384;42.628;23.380;2023-07-31T00:43:33;5.40;;;5.20;;
6693;SDS011;3384;42.628;23.380;2023-07-31T00:46:00;5.30;;;5.10;;
6693;SDS011;3384;42.628;23.380;2023-07-31T00:48:27;5.77;;;5.53;;
6693;SDS011;3384;42.628;23.380;2023-07-31T00:50:54;5.50;;;5.30;;
6693;SDS011;3384;42.628;23.380;2023-07-31T00:53:22;5.60;;;5.50;;
6693;SDS011;3384;42.628;23.380;2023-07-31T00:55:50;5.67;;;5.57;;
6693;SDS011;3384;42.628;23.380;2023-07-31T00:58:18;6.40;;;6.20;;
6693;SDS011;3384;42.628;23.380;2023-07-31T01:00:45;6.00;;;5.70;;
6693;SDS011;3384;42.628;23.380;2023-07-31T01:03:11;6.10;;;5.60;;
6693;SDS011;3384;42.628;23.380;2023-07-31T01:05:39;6.93;;;6.73;;
6693;SDS011;3384;42.628;23.380;2023-07-31T01:08:12;6.23;;;6.10;;
6693;SDS011;3384;42.628;23.380;2023-07-31T01:10:49;6.73;;;6.53;;
6693;SDS011;3384;42.628;23.380;2023-07-31T01:13:21;6.50;;;6.20;;
6693;SDS011;3384;42.628;23.380;2023-07-31T01:15:48;7.30;;;7.10;;
6693;SDS011;3384;42.628;23.380;2023-07-31T01:18:14;8.03;;;7.23;;
6693;SDS011;3384;42.628;23.380;2023-07-31T01:20:41;7.77;;;7.30;;
6693;SDS011;3384;42.628;23.380;2023-07-31T01:23:16;6.67;;;6.30;;
6693;SDS011;3384;42.628;23.380;2023-07-31T01:26:01;8.93;;;8.43;;
6693;SDS011;3384;42.628;23.380;2023-07-31T01:28:33;9.50;;;9.03;;
6693;SDS011;3384;42.628;23.380;2023-07-31T01:31:06;9.30;;;8.90;;
6693;SDS011;3384;42.628;23.380;2023-07-31T01:33:37;11.10;;;10.33;;
6693;SDS011;3384;42.628;23.380;2023-07-31T01:36:04;13.60;;;12.43;;
6693;SDS011;3384;42.628;23.380;2023-07-31T01:38:31;15.30;;;14.00;;
6693;SDS011;3384;42.628;23.380;2023-07-31T01:40:59;15.40;;;14.07;;
6693;SDS011;3384;42.628;23.380;2023-07-31T01:43:27;15.73;;;14.53;;
6693;SDS011;3384;42.628;23.380;2023-07-31T01:45:54;18.23;;;16.57;;
6693;SDS011;3384;42.628;23.380;2023-07-31T01:48:20;18.13;;;16.47;;
6693;SDS011;3384;42.628;23.380;2023-07-31T01:50:47;20.57;;;18.50;;
6693;SDS011;3384;42.628;23.380;2023-07-31T01:53:14;20.43;;;18.40;;
6693;SDS011;3384;42.628;23.380;2023-07-31T01:55:41;21.30;;;19.37;;
6693;SDS011;3384;42.628;23.380;2023-07-31T01:58:09;23.43;;;20.93;;
6693;SDS011;3384;42.628;23.380;2023-07-31T02:00:36;25.80;;;23.00;;
6693;SDS011;3384;42.628;23.380;2023-07-31T02:03:03;24.77;;;22.17;;
6693;SDS011;3384;42.628;23.380;2023-07-31T02:05:30;27.57;;;24.67;;
6693;SDS011;3384;42.628;23.380;2023-07-31T02:07:56;25.20;;;22.53;;
6693;SDS011;3384;42.628;23.380;2023-07-31T02:10:23;25.77;;;23.17;;
6693;SDS011;3384;42.628;23.380;2023-07-31T02:12:50;25.47;;;22.97;;
6693;SDS011;3384;42.628;23.380;2023-07-31T02:15:18;28.67;;;25.90;;
6693;SDS011;3384;42.628;23.380;2023-07-31T02:17:46;26.77;;;23.00;;
6693;SDS011;3384;42.628;23.380;2023-07-31T02:20:13;24.83;;;22.20;;
6693;SDS011;3384;42.628;23.380;2023-07-31T02:22:39;23.40;;;20.90;;
6693;SDS011;3384;42.628;23.380;2023-07-31T02:25:06;25.97;;;23.43;;
6693;SDS011;3384;42.628;23.380;2023-07-31T02:27:34;23.87;;;21.53;;
6693;SDS011;3384;42.628;23.380;2023-07-31T02:30:01;27.67;;;22.70;;
6693;SDS011;3384;42.628;23.380;2023-07-31T02:32:29;25.40;;;23.00;;
6693;SDS011;3384;42.628;23.380;2023-07-31T02:34:56;30.50;;;24.70;;
6693;SDS011;3384;42.628;23.380;2023-07-31T02:37:22;24.57;;;22.37;;
6693;SDS011;3384;42.628;23.380;2023-07-31T02:39:49;26.53;;;23.87;;
6693;SDS011;3384;42.628;23.380;2023-07-31T02:42:16;28.57;;;24.17;;
6693;SDS011;3384;42.628;23.380;2023-07-31T02:44:43;27.90;;;25.07;;
6693;SDS011;3384;42.628;23.380;2023-07-31T02:47:10;30.43;;;22.17;;
6693;SDS011;3384;42.628;23.380;2023-07-31T02:49:38;25.90;;;23.50;;
6693;SDS011;3384;42.628;23.380;2023-07-31T02:52:05;26.20;;;23.53;;
6693;SDS011;3384;42.628;23.380;2023-07-31T02:54:32;27.17;;;23.67;;
6693;SDS011;3384;42.628;23.380;2023-07-31T02:56:59;30.93;;;23.40;;
6693;SDS011;3384;42.628;23.380;2023-07-31T02:59:27;25.30;;;22.60;;
6693;SDS011;3384;42.628;23.380;2023-07-31T03:01:54;24.47;;;22.00;;
6693;SDS011;3384;42.628;23.380;2023-07-31T03:04:21;28.00;;;25.30;;
6693;SDS011;3384;42.628;23.380;2023-07-31T03:06:49;27.23;;;24.43;;
6693;SDS011;3384;42.628;23.380;2023-07-31T03:09:16;25.70;;;23.00;;
6693;SDS011;3384;42.628;23.380;2023-07-31T03:11:43;27.50;;;24.20;;
6693;SDS011;3384;42.628;23.380;2023-07-31T03:14:09;25.70;;;23.13;;
6693;SDS011;3384;42.628;23.380;2023-07-31T03:16:36;23.27;;;21.13;;
6693;SDS011;3384;42.628;23.380;2023-07-31T03:19:03;26.10;;;23.47;;
6693;SDS011;3384;42.628;23.380;2023-07-31T03:21:30;24.77;;;21.30;;
6693;SDS011;3384;42.628;23.380;2023-07-31T03:23:58;23.17;;;20.97;;
6693;SDS011;3384;42.628;23.380;2023-07-31T03:26:25;24.53;;;22.03;;
6693;SDS011;3384;42.628;23.380;2023-07-31T03:28:52;22.63;;;19.33;;
6693;SDS011;3384;42.628;23.380;2023-07-31T03:31:18;28.30;;;24.60;;
6693;SDS011;3384;42.628;23.380;2023-07-31T03:33:45;31.67;;;21.57;;
6693;SDS011;3384;42.628;23.380;2023-07-31T03:36:12;26.40;;;23.70;;
6693;SDS011;3384;42.628;23.380;2023-07-31T03:38:39;27.70;;;23.00;;
6693;SDS011;3384;42.628;23.380;2023-07-31T03:41:07;24.03;;;21.60;;
6693;SDS011;3384;42.628;23.380;2023-07-31T03:43:32;27.37;;;24.17;;
6693;SDS011;3384;42.628;23.380;2023-07-31T03:45:59;26.00;;;23.20;;
6693;SDS011;3384;42.628;23.380;2023-07-31T03:48:27;26.87;;;24.20;;
6693;SDS011;3384;42.628;23.380;2023-07-31T03:50:54;25.43;;;22.43;;
6693;SDS011;3384;42.628;23.380;2023-07-31T03:53:21;26.53;;;23.77;;
6693;SDS011;3384;42.628;23.380;2023-07-31T03:55:48;26.70;;;23.27;;
6693;SDS011;3384;42.628;23.380;2023-07-31T03:58:16;30.63;;;22.20;;
6693;SDS011;3384;42.628;23.380;2023-07-31T04:00:43;26.90;;;24.17;;
6693;SDS011;3384;42.628;23.380;2023-07-31T04:03:10;27.67;;;24.67;;
6693;SDS011;3384;42.628;23.380;2023-07-31T04:05:38;26.83;;;23.43;;
6693;SDS011;3384;42.628;23.380;2023-07-31T04:08:05;28.07;;;25.07;;
6693;SDS011;3384;42.628;23.380;2023-07-31T04:10:31;30.97;;;23.67;;
6693;SDS011;3384;42.628;23.380;2023-07-31T04:12:58;35.53;;;26.00;;
6693;SDS011;3384;42.628;23.380;2023-07-31T04:15:26;28.20;;;24.73;;
6693;SDS011;3384;42.628;23.380;2023-07-31T04:17:53;29.30;;;25.20;;
6693;SDS011;3384;42.628;23.380;2023-07-31T04:20:20;30.87;;;25.40;;
6693;SDS011;3384;42.628;23.380;2023-07-31T04:22:48;32.60;;;24.77;;
6693;SDS011;3384;42.628;23.380;2023-07-31T04:25:14;25.60;;;22.90;;
6693;SDS011;3384;42.628;23.380;2023-07-31T04:27:41;28.90;;;25.70;;
6693;SDS011;3384;42.628;23.380;2023-07-31T04:30:08;29.30;;;25.80;;
6693;SDS011;3384;42.628;23.380;2023-07-31T04:32:36;29.83;;;22.00;;
6693;SDS011;3384;42.628;23.380;2023-07-31T04:35:03;28.17;;;25.17;;
6693;SDS011;3384;42.628;23.380;2023-07-31T04:37:31;29.10;;;24.63;;
6693;SDS011;3384;42.628;23.380;2023-07-31T04:39:58;27.50;;;24.50;;
6693;SDS011;3384;42.628;23.380;2023-07-31T04:42:24;26.30;;;23.47;;
6693;SDS011;3384;42.628;23.380;2023-07-31T04:44:51;28.77;;;24.20;;
6693;SDS011;3384;42.628;23.380;2023-07-31T04:47:19;26.60;;;23.57;;
6693;SDS011;3384;42.628;23.380;2023-07-31T04:49:47;24.33;;;21.80;;
6693;SDS011;3384;42.628;23.380;2023-07-31T04:52:14;23.33;;;21.03;;
6693;SDS011;3384;42.628;23.380;2023-07-31T04:54:41;23.37;;;21.07;;
6693;SDS011;3384;42.628;23.380;2023-07-31T04:57:07;29.40;;;25.07;;
6693;SDS011;3384;42.628;23.380;2023-07-31T04:59:34;32.00;;;22.87;;
6693;SDS011;3384;42.628;23.380;2023-07-31T05:02:02;24.63;;;22.07;;
6693;SDS011;3384;42.628;23.380;2023-07-31T05:04:29;23.00;;;20.80;;
6693;SDS011;3384;42.628;23.380;2023-07-31T05:06:57;25.00;;;21.83;;
6693;SDS011;3384;42.628;23.380;2023-07-31T05:09:24;21.03;;;18.90;;
6693;SDS011;3384;42.628;23.380;2023-07-31T05:11:50;25.60;;;22.50;;
6693;SDS011;3384;42.628;23.380;2023-07-31T05:14:17;26.10;;;21.93;;
6693;SDS011;3384;42.628;23.380;2023-07-31T05:16:45;21.77;;;19.50;;
6693;SDS011;3384;42.628;23.380;2023-07-31T05:19:12;23.90;;;20.50;;
6693;SDS011;3384;42.628;23.380;2023-07-31T05:21:39;23.77;;;21.27;;
6693;SDS011;3384;42.628;23.380;2023-07-31T05:24:07;21.43;;;19.37;;
6693;SDS011;3384;42.628;23.380;2023-07-31T05:26:34;28.90;;;20.90;;
6693;SDS011;3384;42.628;23.380;2023-07-31T05:29:01;23.00;;;20.60;;
6693;SDS011;3384;42.628;23.380;2023-07-31T05:31:28;22.60;;;20.43;;
6693;SDS011;3384;42.628;23.380;2023-07-31T05:33:55;21.63;;;19.33;;
6693;SDS011;3384;42.628;23.380;2023-07-31T05:36:21;21.30;;;17.30;;
6693;SDS011;3384;42.628;23.380;2023-07-31T05:38:48;19.57;;;17.67;;
6693;SDS011;3384;42.628;23.380;2023-07-31T05:41:16;19.87;;;17.97;;
6693;SDS011;3384;42.628;23.380;2023-07-31T05:43:43;18.63;;;16.87;;
6693;SDS011;3384;42.628;23.380;2023-07-31T05:46:11;20.23;;;18.33;;
6693;SDS011;3384;42.628;23.380;2023-07-31T05:48:38;17.37;;;15.83;;
6693;SDS011;3384;42.628;23.380;2023-07-31T05:51:04;16.90;;;15.50;;
6693;SDS011;3384;42.628;23.380;2023-07-31T05:53:32;15.97;;;14.70;;
6693;SDS011;3384;42.628;23.380;2023-07-31T05:55:59;15.30;;;14.20;;
6693;SDS011;3384;42.628;23.380;2023-07-31T05:58:27;13.23;;;12.43;;
6693;SDS011;3384;42.628;23.380;2023-07-31T06:00:54;13.77;;;12.43;;
6693;SDS011;3384;42.628;23.380;2023-07-31T06:03:20;12.97;;;12.20;;
6693;SDS011;3384;42.628;23.380;2023-07-31T06:05:47;13.27;;;12.20;;
6693;SDS011;3384;42.628;23.380;2023-07-31T06:08:14;12.20;;;11.13;;
6693;SDS011;3384;42.628;23.380;2023-07-31T06:10:41;12.47;;;11.43;;
6693;SDS011;3384;42.628;23.380;2023-07-31T06:13:08;12.00;;;11.20;;
6693;SDS011;3384;42.628;23.380;2023-07-31T06:15:36;11.67;;;11.07;;
6693;SDS011;3384;42.628;23.380;2023-07-31T06:18:03;11.57;;;10.77;;
6693;SDS011;3384;42.628;23.380;2023-07-31T06:20:32;11.17;;;10.70;;
6693;SDS011;3384;42.628;23.380;2023-07-31T06:22:59;12.97;;;11.87;;
6693;SDS011;3384;42.628;23.380;2023-07-31T06:25:26;13.20;;;12.20;;
6693;SDS011;3384;42.628;23.380;2023-07-31T06:27:53;11.93;;;11.33;;
6693;SDS011;3384;42.628;23.380;2023-07-31T06:30:20;12.50;;;11.60;;
6693;SDS011;3384;42.628;23.380;2023-07-31T06:32:48;11.93;;;11.33;;
6693;SDS011;3384;42.628;23.380;2023-07-31T06:35:15;10.30;;;10.00;;
6693;SDS011;3384;42.628;23.380;2023-07-31T06:37:42;11.67;;;11.20;;
6693;SDS011;3384;42.628;23.380;2023-07-31T06:40:09;11.47;;;11.00;;
6693;SDS011;3384;42.628;23.380;2023-07-31T06:42:37;11.67;;;11.23;;
6693;SDS011;3384;42.628;23.380;2023-07-31T06:45:04;11.00;;;10.33;;
6693;SDS011;3384;42.628;23.380;2023-07-31T06:47:31;11.60;;;11.03;;
6693;SDS011;3384;42.628;23.380;2023-07-31T06:50:00;11.13;;;10.63;;
6693;SDS011;3384;42.628;23.380;2023-07-31T06:52:27;10.90;;;10.60;;
6693;SDS011;3384;42.628;23.380;2023-07-31T06:55:02;12.10;;;11.60;;
6693;SDS011;3384;42.628;23.380;2023-07-31T06:57:30;11.37;;;10.13;;
6693;SDS011;3384;42.628;23.380;2023-07-31T06:59:57;10.70;;;9.67;;
6693;SDS011;3384;42.628;23.380;2023-07-31T07:02:24;9.87;;;9.57;;
6693;SDS011;3384;42.628;23.380;2023-07-31T07:04:50;10.13;;;9.47;;
6693;SDS011;3384;42.628;23.380;2023-07-31T07:07:19;17.43;;;8.33;;
6693;SDS011;3384;42.628;23.380;2023-07-31T07:09:46;8.80;;;8.60;;
6693;SDS011;3384;42.628;23.380;2023-07-31T07:12:13;9.80;;;9.40;;
6693;SDS011;3384;42.628;23.380;2023-07-31T07:14:39;8.83;;;8.33;;
6693;SDS011;3384;42.628;23.380;2023-07-31T07:17:06;9.23;;;8.93;;
6693;SDS011;3384;42.628;23.380;2023-07-31T07:19:33;9.00;;;8.37;;
6693;SDS011;3384;42.628;23.380;2023-07-31T07:22:00;9.33;;;8.97;;
6693;SDS011;3384;42.628;23.380;2023-07-31T07:24:28;9.10;;;8.80;;
6693;SDS011;3384;42.628;23.380;2023-07-31T07:26:55;9.00;;;8.53;;
6693;SDS011;3384;42.628;23.380;2023-07-31T07:29:22;13.43;;;8.40;;
6693;SDS011;3384;42.628;23.380;2023-07-31T07:31:49;8.90;;;8.70;;
6693;SDS011;3384;42.628;23.380;2023-07-31T07:34:16;10.47;;;9.97;;
6693;SDS011;3384;42.628;23.380;2023-07-31T07:36:42;9.00;;;8.80;;
6693;SDS011;3384;42.628;23.380;2023-07-31T07:39:09;9.50;;;9.10;;
6693;SDS011;3384;42.628;23.380;2023-07-31T07:41:38;9.10;;;8.90;;
6693;SDS011;3384;42.628;23.380;2023-07-31T07:44:05;10.23;;;9.70;;
6693;SDS011;3384;42.628;23.380;2023-07-31T07:46:32;9.83;;;9.63;;
6693;SDS011;3384;42.628;23.380;2023-07-31T07:48:58;9.93;;;9.60;;
6693;SDS011;3384;42.628;23.380;2023-07-31T07:51:25;9.90;;;9.60;;
6693;SDS011;3384;42.628;23.380;2023-07-31T07:53:52;10.33;;;10.13;;
6693;SDS011;3384;42.628;23.380;2023-07-31T07:56:19;11.30;;;10.70;;
6693;SDS011;3384;42.628;23.380;2023-07-31T07:58:49;10.30;;;9.67;;
6693;SDS011;3384;42.628;23.380;2023-07-31T08:01:16;10.20;;;9.90;;
6693;SDS011;3384;42.628;23.380;2023-07-31T08:03:43;10.67;;;10.37;;
6693;SDS011;3384;42.628;23.380;2023-07-31T08:06:10;10.80;;;10.20;;
6693;SDS011;3384;42.628;23.380;2023-07-31T08:08:37;10.23;;;9.73;;
6693;SDS011;3384;42.628;23.380;2023-07-31T08:11:04;9.90;;;9.60;;
6693;SDS011;3384;42.628;23.380;2023-07-31T08:13:31;10.87;;;10.50;;
6693;SDS011;3384;42.628;23.380;2023-07-31T08:15:59;10.77;;;10.40;;
6693;SDS011;3384;42.628;23.380;2023-07-31T08:18:26;10.33;;;9.90;;
6693;SDS011;3384;42.628;23.380;2023-07-31T08:20:53;11.20;;;10.30;;
6693;SDS011;3384;42.628;23.380;2023-07-31T08:23:20;10.07;;;9.87;;
6693;SDS011;3384;42.628;23.380;2023-07-31T08:25:46;11.50;;;11.10;;
6693;SDS011;3384;42.628;23.380;2023-07-31T08:28:14;11.43;;;11.13;;
6693;SDS011;3384;42.628;23.380;2023-07-31T08:30:41;11.90;;;11.50;;
6693;SDS011;3384;42.628;23.380;2023-07-31T08:33:10;12.43;;;11.70;;
6693;SDS011;3384;42.628;23.380;2023-07-31T08:35:37;12.83;;;11.97;;
6693;SDS011;3384;42.628;23.380;2023-07-31T08:38:03;12.13;;;11.63;;
6693;SDS011;3384;42.628;23.380;2023-07-31T08:40:30;12.27;;;11.87;;
6693;SDS011;3384;42.628;23.380;2023-07-31T08:42:57;11.47;;;11.20;;
6693;SDS011;3384;42.628;23.380;2023-07-31T08:45:27;11.53;;;11.23;;
6693;SDS011;3384;42.628;23.380;2023-07-31T08:47:55;12.10;;;11.60;;
6693;SDS011;3384;42.628;23.380;2023-07-31T08:50:24;12.03;;;11.63;;
6693;SDS011;3384;42.628;23.380;2023-07-31T08:52:51;11.17;;;10.87;;
6693;SDS011;3384;42.628;23.380;2023-07-31T08:55:18;11.90;;;11.40;;
6693;SDS011;3384;42.628;23.380;2023-07-31T08:57:48;13.40;;;12.83;;
6693;SDS011;3384;42.628;23.380;2023-07-31T09:00:17;13.50;;;12.90;;
6693;SDS011;3384;42.628;23.380;2023-07-31T09:02:46;12.30;;;11.90;;
6693;SDS011;3384;42.628;23.380;2023-07-31T09:05:18;12.53;;;11.60;;
6693;SDS011;3384;42.628;23.380;2023-07-31T09:07:47;13.27;;;12.40;;
6693;SDS011;3384;42.628;23.380;2023-07-31T09:10:15;12.33;;;11.73;;
6693;SDS011;3384;42.628;23.380;2023-07-31T09:12:43;12.50;;;11.80;;
6693;SDS011;3384;42.628;23.380;2023-07-31T09:15:11;12.60;;;12.30;;
6693;SDS011;3384;42.628;23.380;2023-07-31T09:17:38;12.67;;;12.10;;
6693;SDS011;3384;42.628;23.380;2023-07-31T09:20:14;12.10;;;11.80;;
6693;SDS011;3384;42.628;23.380;2023-07-31T09:22:42;12.80;;;12.10;;
6693;SDS011;3384;42.628;23.380;2023-07-31T09:25:18;13.10;;;12.70;;
6693;SDS011;3384;42.628;23.380;2023-07-31T09:27:47;13.47;;;12.87;;
6693;SDS011;3384;42.628;23.380;2023-07-31T09:30:15;11.70;;;11.50;;
6693;SDS011;3384;42.628;23.380;2023-07-31T09:32:42;12.00;;;11.73;;
6693;SDS011;3384;42.628;23.380;2023-07-31T09:35:13;13.53;;;13.03;;
6693;SDS011;3384;42.628;23.380;2023-07-31T09:37:47;12.53;;;12.23;;
6693;SDS011;3384;42.628;23.380;2023-07-31T09:40:25;13.90;;;13.50;;
6693;SDS011;3384;42.628;23.380;2023-07-31T09:42:54;13.03;;;12.53;;
6693;SDS011;3384;42.628;23.380;2023-07-31T09:45:25;13.40;;;13.00;;
6693;SDS011;3384;42.628;23.380;2023-07-31T09:47:53;13.70;;;13.10;;
6693;SDS011;3384;42.628;23.380;2023-07-31T09:50:20;12.40;;;12.10;;
6693;SDS011;3384;42.628;23.380;2023-07-31T09:52:48;13.77;;;13.43;;
6693;SDS011;3384;42.628;23.380;2023-07-31T09:55:15;13.20;;;12.80;;
6693;SDS011;3384;42.628;23.380;2023-07-31T09:57:45;13.67;;;13.27;;
6693;SDS011;3384;42.628;23.380;2023-07-31T10:00:14;13.90;;;13.27;;
6693;SDS011;3384;42.628;23.380;2023-07-31T10:02:42;14.50;;;14.03;;
6693;SDS011;3384;42.628;23.380;2023-07-31T10:05:12;14.37;;;13.77;;
6693;SDS011;3384;42.628;23.380;2023-07-31T10:07:39;13.80;;;13.00;;
6693;SDS011;3384;42.628;23.380;2023-07-31T10:10:09;14.00;;;13.50;;
6693;SDS011;3384;42.628;23.380;2023-07-31T10:12:37;14.90;;;14.30;;
6693;SDS011;3384;42.628;23.380;2023-07-31T10:15:08;14.27;;;13.87;;
6693;SDS011;3384;42.628;23.380;2023-07-31T10:17:36;16.67;;;14.47;;
6693;SDS011;3384;42.628;23.380;2023-07-31T10:20:03;13.60;;;13.20;;
6693;SDS011;3384;42.628;23.380;2023-07-31T10:22:32;14.13;;;13.20;;
6693;SDS011;3384;42.628;23.380;2023-07-31T10:25:00;14.10;;;13.70;;
6693;SDS011;3384;42.628;23.380;2023-07-31T10:27:28;14.77;;;14.27;;
6693;SDS011;3384;42.628;23.380;2023-07-31T10:29:57;14.90;;;13.67;;
6693;SDS011;3384;42.628;23.380;2023-07-31T10:32:27;13.20;;;12.90;;
6693;SDS011;3384;42.628;23.380;2023-07-31T10:34:54;13.50;;;13.10;;
6693;SDS011;3384;42.628;23.380;2023-07-31T10:37:23;15.20;;;13.87;;
6693;SDS011;3384;42.628;23.380;2023-07-31T10:39:57;14.47;;;13.97;;
6693;SDS011;3384;42.628;23.380;2023-07-31T10:42:29;13.70;;;13.30;;
6693;SDS011;3384;42.628;23.380;2023-07-31T10:44:58;14.40;;;13.83;;
6693;SDS011;3384;42.628;23.380;2023-07-31T10:47:25;14.53;;;13.73;;
6693;SDS011;3384;42.628;23.380;2023-07-31T10:49:54;14.53;;;13.83;;
6693;SDS011;3384;42.628;23.380;2023-07-31T10:52:38;14.50;;;13.70;;
6693;SDS011;3384;42.628;23.380;2023-07-31T10:55:15;14.67;;;14.13;;
6693;SDS011;3384;42.628;23.380;2023-07-31T10:57:52;14.27;;;13.87;;
6693;SDS011;3384;42.628;23.380;2023-07-31T11:00:21;14.70;;;13.90;;
6693;SDS011;3384;42.628;23.380;2023-07-31T11:02:59;14.77;;;14.37;;
6693;SDS011;3384;42.628;23.380;2023-07-31T11:08:20;14.73;;;14.27;;
6693;SDS011;3384;42.628;23.380;2023-07-31T11:10:49;15.50;;;15.00;;
6693;SDS011;3384;42.628;23.380;2023-07-31T11:13:17;14.67;;;14.27;;
6693;SDS011;3384;42.628;23.380;2023-07-31T11:15:44;14.60;;;14.20;;
6693;SDS011;3384;42.628;23.380;2023-07-31T11:18:11;15.00;;;14.60;;
6693;SDS011;3384;42.628;23.380;2023-07-31T11:20:38;14.77;;;14.37;;
6693;SDS011;3384;42.628;23.380;2023-07-31T11:23:07;14.33;;;14.03;;
6693;SDS011;3384;42.628;23.380;2023-07-31T11:25:35;15.43;;;14.97;;
6693;SDS011;3384;42.628;23.380;2023-07-31T11:28:06;15.43;;;14.93;;
6693;SDS011;3384;42.628;23.380;2023-07-31T11:30:33;13.80;;;13.50;;
6693;SDS011;3384;42.628;23.380;2023-07-31T11:33:02;14.00;;;13.50;;
6693;SDS011;3384;42.628;23.380;2023-07-31T11:35:30;15.00;;;14.60;;
6693;SDS011;3384;42.628;23.380;2023-07-31T11:37:57;14.20;;;13.90;;
6693;SDS011;3384;42.628;23.380;2023-07-31T11:40:26;14.83;;;14.33;;
6693;SDS011;3384;42.628;23.380;2023-07-31T11:42:55;15.50;;;15.10;;
6693;SDS011;3384;42.628;23.380;2023-07-31T11:45:24;15.10;;;14.63;;
6693;SDS011;3384;42.628;23.380;2023-07-31T11:47:52;14.80;;;14.40;;
6693;SDS011;3384;42.628;23.380;2023-07-31T11:50:20;15.40;;;15.00;;
6693;SDS011;3384;42.628;23.380;2023-07-31T11:52:49;14.57;;;14.17;;
6693;SDS011;3384;42.628;23.380;2023-07-31T11:55:21;14.77;;;14.37;;
6693;SDS011;3384;42.628;23.380;2023-07-31T11:57:50;14.30;;;13.60;;
6693;SDS011;3384;42.628;23.380;2023-07-31T12:00:18;14.77;;;14.20;;
6693;SDS011;3384;42.628;23.380;2023-07-31T12:02:45;15.27;;;14.50;;
6693;SDS011;3384;42.628;23.380;2023-07-31T12:05:13;15.30;;;14.60;;
6693;SDS011;3384;42.628;23.380;2023-07-31T12:07:44;14.80;;;14.33;;
6693;SDS011;3384;42.628;23.380;2023-07-31T12:10:27;14.63;;;14.20;;
6693;SDS011;3384;42.628;23.380;2023-07-31T12:12:57;13.97;;;13.67;;
6693;SDS011;3384;42.628;23.380;2023-07-31T12:15:29;15.20;;;14.60;;
6693;SDS011;3384;42.628;23.380;2023-07-31T12:17:59;15.00;;;14.60;;
6693;SDS011;3384;42.628;23.380;2023-07-31T12:20:26;15.50;;;15.00;;
6693;SDS011;3384;42.628;23.380;2023-07-31T12:22:55;15.33;;;14.80;;
6693;SDS011;3384;42.628;23.380;2023-07-31T12:25:23;16.87;;;15.77;;
6693;SDS011;3384;42.628;23.380;2023-07-31T12:27:54;15.60;;;15.10;;
6693;SDS011;3384;42.628;23.380;2023-07-31T12:30:29;16.50;;;15.80;;
6693;SDS011;3384;42.628;23.380;2023-07-31T12:33:02;15.97;;;15.27;;
6693;SDS011;3384;42.628;23.380;2023-07-31T12:35:34;16.80;;;16.00;;
6693;SDS011;3384;42.628;23.380;2023-07-31T12:38:01;16.93;;;16.23;;
6693;SDS011;3384;42.628;23.380;2023-07-31T12:40:28;18.90;;;18.10;;
6693;SDS011;3384;42.628;23.380;2023-07-31T12:42:55;19.53;;;18.50;;
6693;SDS011;3384;42.628;23.380;2023-07-31T12:45:22;19.37;;;18.37;;
6693;SDS011;3384;42.628;23.380;2023-07-31T12:47:50;20.53;;;19.33;;
6693;SDS011;3384;42.628;23.380;2023-07-31T12:50:17;17.93;;;17.10;;
6693;SDS011;3384;42.628;23.380;2023-07-31T12:52:43;17.57;;;16.87;;
6693;SDS011;3384;42.628;23.380;2023-07-31T12:55:10;17.83;;;17.03;;
6693;SDS011;3384;42.628;23.380;2023-07-31T12:57:38;18.57;;;17.50;;
6693;SDS011;3384;42.628;23.380;2023-07-31T13:00:06;18.23;;;17.43;;
6693;SDS011;3384;42.628;23.380;2023-07-31T13:02:34;17.27;;;16.20;;
6693;SDS011;3384;42.628;23.380;2023-07-31T13:05:02;18.67;;;17.70;;
6693;SDS011;3384;42.628;23.380;2023-07-31T13:07:29;19.77;;;18.90;;
6693;SDS011;3384;42.628;23.380;2023-07-31T13:09:55;18.67;;;17.67;;
6693;SDS011;3384;42.628;23.380;2023-07-31T13:12:22;20.20;;;19.00;;
6693;SDS011;3384;42.628;23.380;2023-07-31T13:14:49;18.97;;;18.17;;
6693;SDS011;3384;42.628;23.380;2023-07-31T13:17:17;19.30;;;18.40;;
6693;SDS011;3384;42.628;23.380;2023-07-31T13:19:44;21.03;;;20.13;;
6693;SDS011;3384;42.628;23.380;2023-07-31T13:22:12;17.40;;;16.70;;
6693;SDS011;3384;42.628;23.380;2023-07-31T13:24:39;19.33;;;18.20;;
6693;SDS011;3384;42.628;23.380;2023-07-31T13:27:06;18.97;;;18.17;;
6693;SDS011;3384;42.628;23.380;2023-07-31T13:29:33;19.20;;;18.03;;
6693;SDS011;3384;42.628;23.380;2023-07-31T13:31:59;18.17;;;17.37;;
6693;SDS011;3384;42.628;23.380;2023-07-31T13:34:26;19.13;;;17.10;;
6693;SDS011;3384;42.628;23.380;2023-07-31T13:36:54;18.33;;;17.53;;
6693;SDS011;3384;42.628;23.380;2023-07-31T13:39:22;19.10;;;18.00;;
6693;SDS011;3384;42.628;23.380;2023-07-31T13:41:49;17.40;;;16.40;;
6693;SDS011;3384;42.628;23.380;2023-07-31T13:44:16;16.23;;;15.63;;
6693;SDS011;3384;42.628;23.380;2023-07-31T13:46:43;17.60;;;16.50;;
6693;SDS011;3384;42.628;23.380;2023-07-31T13:49:10;15.47;;;15.07;;
6693;SDS011;3384;42.628;23.380;2023-07-31T13:51:36;17.43;;;16.53;;
6693;SDS011;3384;42.628;23.380;2023-07-31T13:54:04;18.17;;;16.80;;
6693;SDS011;3384;42.628;23.380;2023-07-31T13:56:33;17.10;;;16.50;;
6693;SDS011;3384;42.628;23.380;2023-07-31T13:59:00;18.00;;;17.20;;
6693;SDS011;3384;42.628;23.380;2023-07-31T14:01:27;18.07;;;17.07;;
6693;SDS011;3384;42.628;23.380;2023-07-31T14:03:54;17.23;;;16.33;;
6693;SDS011;3384;42.628;23.380;2023-07-31T14:06:21;18.40;;;17.07;;
6693;SDS011;3384;42.628;23.380;2023-07-31T14:08:48;18.63;;;17.90;;
6693;SDS011;3384;42.628;23.380;2023-07-31T14:11:15;18.47;;;17.30;;
6693;SDS011;3384;42.628;23.380;2023-07-31T14:13:43;16.67;;;16.07;;
6693;SDS011;3384;42.628;23.380;2023-07-31T14:16:10;17.20;;;16.40;;
6693;SDS011;3384;42.628;23.380;2023-07-31T14:18:36;17.13;;;16.53;;
6693;SDS011;3384;42.628;23.380;2023-07-31T14:21:06;17.10;;;16.40;;
6693;SDS011;3384;42.628;23.380;2023-07-31T14:23:33;16.90;;;16.20;;
6693;SDS011;3384;42.628;23.380;2023-07-31T14:26:00;17.33;;;16.73;;
6693;SDS011;3384;42.628;23.380;2023-07-31T14:28:27;17.03;;;16.43;;
6693;SDS011;3384;42.628;23.380;2023-07-31T14:30:55;17.63;;;16.77;;
6693;SDS011;3384;42.628;23.380;2023-07-31T14:33:22;18.30;;;17.40;;
6693;SDS011;3384;42.628;23.380;2023-07-31T14:35:49;17.27;;;16.37;;
6693;SDS011;3384;42.628;23.380;2023-07-31T14:38:15;18.47;;;17.20;;
6693;SDS011;3384;42.628;23.380;2023-07-31T14:40:42;16.30;;;15.70;;
6693;SDS011;3384;42.628;23.380;2023-07-31T14:43:09;17.37;;;16.57;;
6693;SDS011;3384;42.628;23.380;2023-07-31T14:45:36;18.00;;;17.30;;